sensor_id;sensor_type;location;lat;lon;timestamp;pressure;altitude;pressure_sealevel;temperature;humidity
8075;BME280;4080;42.676;23.372;2022-11-21T00:00:26;93794.88;;;11.09;100.00
8075;BME280;4080;42.676;23.372;2022-11-21T00:02:53;93822.09;;;11.40;100.00
8075;BME280;4080;42.676;23.372;2022-11-21T00:05:20;93820.72;;;11.43;100.00
8075;BME280;4080;42.676;23.372;2022-11-21T00:07:48;93826.22;;;11.55;100.00
8075;BME280;4080;42.676;23.372;2022-11-21T00:10:15;93812.53;;;11.53;100.00
8075;BME280;4080;42.676;23.372;2022-11-21T00:12:44;93806.72;;;11.65;100.00
8075;BME280;4080;42.676;23.372;2022-11-21T00:15:14;93813.25;;;11.67;100.00
8075;BME280;4080;42.676;23.372;2022-11-21T00:17:40;93794.34;;;11.51;100.00
8075;BME280;4080;42.676;23.372;2022-11-21T00:20:08;93789.69;;;11.48;100.00
8075;BME280;4080;42.676;23.372;2022-11-21T00:22:34;93794.00;;;11.44;100.00
8075;BME280;4080;42.676;23.372;2022-11-21T00:25:03;93786.88;;;11.45;100.00
8075;BME280;4080;42.676;23.372;2022-11-21T00:27:30;93769.03;;;11.50;100.00
8075;BME280;4080;42.676;23.372;2022-11-21T00:29:56;93752.75;;;11.57;100.00
8075;BME280;4080;42.676;23.372;2022-11-21T00:32:23;93751.41;;;11.68;100.00
8075;BME280;4080;42.676;23.372;2022-11-21T00:34:50;93741.03;;;11.72;100.00
8075;BME280;4080;42.676;23.372;2022-11-21T00:37:17;93734.03;;;11.76;100.00
8075;BME280;4080;42.676;23.372;2022-11-21T00:39:43;93735.00;;;11.80;100.00
8075;BME280;4080;42.676;23.372;2022-11-21T00:42:11;93732.06;;;11.81;100.00
8075;BME280;4080;42.676;23.372;2022-11-21T00:44:38;93720.09;;;11.84;100.00
8075;BME280;4080;42.676;23.372;2022-11-21T00:47:05;93749.97;;;11.93;100.00
8075;BME280;4080;42.676;23.372;2022-11-21T00:49:32;93770.06;;;11.94;100.00
8075;BME280;4080;42.676;23.372;2022-11-21T00:51:58;93762.91;;;11.95;100.00
8075;BME280;4080;42.676;23.372;2022-11-21T00:54:25;93747.22;;;11.98;100.00
8075;BME280;4080;42.676;23.372;2022-11-21T00:56:52;93743.47;;;11.99;100.00
8075;BME280;4080;42.676;23.372;2022-11-21T00:59:20;93756.09;;;12.02;100.00
8075;BME280;4080;42.676;23.372;2022-11-21T01:01:46;93756.56;;;12.04;100.00
8075;BME280;4080;42.676;23.372;2022-11-21T01:04:13;93749.72;;;12.03;100.00
8075;BME280;4080;42.676;23.372;2022-11-21T01:06:43;93741.31;;;12.01;100.00
8075;BME280;4080;42.676;23.372;2022-11-21T01:09:09;93738.03;;;11.96;100.00
8075;BME280;4080;42.676;23.372;2022-11-21T01:11:36;93740.19;;;11.94;100.00
8075;BME280;4080;42.676;23.372;2022-11-21T01:14:03;93723.84;;;11.83;100.00
8075;BME280;4080;42.676;23.372;2022-11-21T01:16:31;93719.75;;;11.77;100.00
8075;BME280;4080;42.676;23.372;2022-11-21T01:18:58;93717.25;;;11.72;100.00
8075;BME280;4080;42.676;23.372;2022-11-21T01:21:26;93720.72;;;11.81;100.00
8075;BME280;4080;42.676;23.372;2022-11-21T01:23:53;93707.56;;;11.59;100.00
8075;BME280;4080;42.676;23.372;2022-11-21T01:26:22;93699.44;;;11.46;100.00
8075;BME280;4080;42.676;23.372;2022-11-21T01:28:50;93742.47;;;11.78;100.00
8075;BME280;4080;42.676;23.372;2022-11-21T01:31:18;93715.84;;;11.74;100.00
8075;BME280;4080;42.676;23.372;2022-11-21T01:33:47;93690.84;;;11.72;100.00
8075;BME280;4080;42.676;23.372;2022-11-21T01:36:16;93702.19;;;11.72;100.00
8075;BME280;4080;42.676;23.372;2022-11-21T01:38:44;93694.72;;;11.74;100.00
8075;BME280;4080;42.676;23.372;2022-11-21T01:41:13;93689.03;;;11.81;100.00
8075;BME280;4080;42.676;23.372;2022-11-21T01:43:41;93717.59;;;11.79;100.00
8075;BME280;4080;42.676;23.372;2022-11-21T01:46:12;93708.75;;;11.84;100.00
8075;BME280;4080;42.676;23.372;2022-11-21T01:48:44;93707.38;;;11.86;100.00
8075;BME280;4080;42.676;23.372;2022-11-21T01:51:20;93693.84;;;11.88;100.00
8075;BME280;4080;42.676;23.372;2022-11-21T01:53:54;93670.06;;;11.79;100.00
8075;BME280;4080;42.676;23.372;2022-11-21T01:56:23;93693.69;;;11.84;100.00
8075;BME280;4080;42.676;23.372;2022-11-21T01:58:51;93698.06;;;11.89;100.00
8075;BME280;4080;42.676;23.372;2022-11-21T02:01:20;93697.13;;;11.93;100.00
8075;BME280;4080;42.676;23.372;2022-11-21T02:03:53;93726.06;;;11.98;100.00
8075;BME280;4080;42.676;23.372;2022-11-21T02:06:26;93720.63;;;12.03;100.00
8075;BME280;4080;42.676;23.372;2022-11-21T02:08:53;93729.91;;;11.92;100.00
8075;BME280;4080;42.676;23.372;2022-11-21T02:11:26;93703.81;;;11.91;100.00
8075;BME280;4080;42.676;23.372;2022-11-21T02:13:55;93710.78;;;11.87;100.00
8075;BME280;4080;42.676;23.372;2022-11-21T02:16:23;93738.47;;;11.89;100.00
8075;BME280;4080;42.676;23.372;2022-11-21T02:18:49;93741.25;;;11.93;100.00
8075;BME280;4080;42.676;23.372;2022-11-21T02:21:24;93708.47;;;11.94;100.00
8075;BME280;4080;42.676;23.372;2022-11-21T02:23:57;93715.94;;;11.92;100.00
8075;BME280;4080;42.676;23.372;2022-11-21T02:26:29;93670.25;;;11.51;100.00
8075;BME280;4080;42.676;23.372;2022-11-21T02:28:56;93716.84;;;11.87;100.00
8075;BME280;4080;42.676;23.372;2022-11-21T02:31:23;93737.50;;;11.85;100.00
8075;BME280;4080;42.676;23.372;2022-11-21T02:33:50;93763.25;;;11.71;100.00
8075;BME280;4080;42.676;23.372;2022-11-21T02:36:32;93736.97;;;11.66;100.00
8075;BME280;4080;42.676;23.372;2022-11-21T02:39:00;93719.91;;;11.72;100.00
8075;BME280;4080;42.676;23.372;2022-11-21T02:41:30;93717.59;;;11.79;100.00
8075;BME280;4080;42.676;23.372;2022-11-21T02:44:03;93710.31;;;11.85;100.00
8075;BME280;4080;42.676;23.372;2022-11-21T02:46:32;93705.03;;;11.93;100.00
8075;BME280;4080;42.676;23.372;2022-11-21T02:49:03;93681.78;;;11.95;100.00
8075;BME280;4080;42.676;23.372;2022-11-21T02:51:32;93678.34;;;12.03;100.00
8075;BME280;4080;42.676;23.372;2022-11-21T02:53:59;93662.03;;;12.10;100.00
8075;BME280;4080;42.676;23.372;2022-11-21T02:56:25;93667.66;;;12.26;100.00
8075;BME280;4080;42.676;23.372;2022-11-21T02:58:53;93676.06;;;12.28;100.00
8075;BME280;4080;42.676;23.372;2022-11-21T03:01:20;93646.50;;;12.26;100.00
8075;BME280;4080;42.676;23.372;2022-11-21T03:03:47;93633.91;;;12.23;100.00
8075;BME280;4080;42.676;23.372;2022-11-21T03:06:13;93635.16;;;12.25;100.00
8075;BME280;4080;42.676;23.372;2022-11-21T03:08:54;93649.63;;;12.28;100.00
8075;BME280;4080;42.676;23.372;2022-11-21T03:11:21;93653.50;;;12.13;100.00
8075;BME280;4080;42.676;23.372;2022-11-21T03:13:47;93665.91;;;12.04;100.00
8075;BME280;4080;42.676;23.372;2022-11-21T03:16:15;93643.06;;;11.99;100.00
8075;BME280;4080;42.676;23.372;2022-11-21T03:18:42;93649.28;;;12.03;100.00
8075;BME280;4080;42.676;23.372;2022-11-21T03:21:09;93645.25;;;11.97;100.00
8075;BME280;4080;42.676;23.372;2022-11-21T03:23:35;93658.88;;;11.91;100.00
8075;BME280;4080;42.676;23.372;2022-11-21T03:26:02;93658.22;;;11.76;100.00
8075;BME280;4080;42.676;23.372;2022-11-21T03:28:29;93664.63;;;11.84;100.00
8075;BME280;4080;42.676;23.372;2022-11-21T03:30:55;93656.53;;;11.80;100.00
8075;BME280;4080;42.676;23.372;2022-11-21T03:33:23;93653.44;;;11.78;100.00
8075;BME280;4080;42.676;23.372;2022-11-21T03:35:50;93660.44;;;11.83;100.00
8075;BME280;4080;42.676;23.372;2022-11-21T03:38:17;93668.34;;;11.83;100.00
8075;BME280;4080;42.676;23.372;2022-11-21T03:40:43;93674.28;;;11.89;100.00
8075;BME280;4080;42.676;23.372;2022-11-21T03:43:10;93665.59;;;11.97;100.00
8075;BME280;4080;42.676;23.372;2022-11-21T03:45:37;93654.56;;;12.03;100.00
8075;BME280;4080;42.676;23.372;2022-11-21T03:48:04;93638.72;;;12.03;100.00
8075;BME280;4080;42.676;23.372;2022-11-21T03:50:32;93646.34;;;12.05;100.00
8075;BME280;4080;42.676;23.372;2022-11-21T03:52:59;93662.66;;;11.98;100.00
8075;BME280;4080;42.676;23.372;2022-11-21T03:55:25;93666.53;;;12.01;100.00
8075;BME280;4080;42.676;23.372;2022-11-21T03:57:52;93660.78;;;12.07;100.00
8075;BME280;4080;42.676;23.372;2022-11-21T04:00:19;93643.69;;;12.13;100.00
8075;BME280;4080;42.676;23.372;2022-11-21T04:02:45;93629.06;;;12.07;100.00
8075;BME280;4080;42.676;23.372;2022-11-21T04:05:12;93641.81;;;12.23;100.00
8075;BME280;4080;42.676;23.372;2022-11-21T04:07:40;93632.22;;;12.27;100.00
8075;BME280;4080;42.676;23.372;2022-11-21T04:10:07;93641.06;;;12.31;100.00
8075;BME280;4080;42.676;23.372;2022-11-21T04:12:34;93642.63;;;12.32;100.00
8075;BME280;4080;42.676;23.372;2022-11-21T04:15:01;93648.22;;;12.39;100.00
8075;BME280;4080;42.676;23.372;2022-11-21T04:17:28;93623.47;;;12.43;100.00
8075;BME280;4080;42.676;23.372;2022-11-21T04:19:56;93612.28;;;12.47;100.00
8075;BME280;4080;42.676;23.372;2022-11-21T04:22:22;93623.00;;;12.50;100.00
8075;BME280;4080;42.676;23.372;2022-11-21T04:24:50;93621.91;;;12.51;100.00
8075;BME280;4080;42.676;23.372;2022-11-21T04:27:17;93630.00;;;12.55;100.00
8075;BME280;4080;42.676;23.372;2022-11-21T04:29:44;93637.34;;;12.58;100.00
8075;BME280;4080;42.676;23.372;2022-11-21T04:32:11;93633.88;;;12.74;100.00
8075;BME280;4080;42.676;23.372;2022-11-21T04:34:37;93639.38;;;13.25;100.00
8075;BME280;4080;42.676;23.372;2022-11-21T04:37:04;93669.22;;;13.51;100.00
8075;BME280;4080;42.676;23.372;2022-11-21T04:39:31;93682.63;;;13.38;100.00
8075;BME280;4080;42.676;23.372;2022-11-21T04:41:59;93637.66;;;13.29;100.00
8075;BME280;4080;42.676;23.372;2022-11-21T04:44:25;93630.69;;;13.07;100.00
8075;BME280;4080;42.676;23.372;2022-11-21T04:46:52;93657.66;;;12.92;100.00
8075;BME280;4080;42.676;23.372;2022-11-21T04:49:19;93681.63;;;12.78;100.00
8075;BME280;4080;42.676;23.372;2022-11-21T04:51:46;93686.34;;;12.55;100.00
8075;BME280;4080;42.676;23.372;2022-11-21T04:54:12;93674.34;;;12.32;100.00
8075;BME280;4080;42.676;23.372;2022-11-21T04:56:39;93659.66;;;11.82;100.00
8075;BME280;4080;42.676;23.372;2022-11-21T05:02:16;93661.19;;;11.35;100.00
8075;BME280;4080;42.676;23.372;2022-11-21T05:04:42;93674.16;;;11.23;100.00
8075;BME280;4080;42.676;23.372;2022-11-21T05:07:09;93701.59;;;11.13;100.00
8075;BME280;4080;42.676;23.372;2022-11-21T05:09:36;93700.88;;;10.99;100.00
8075;BME280;4080;42.676;23.372;2022-11-21T05:12:03;93703.22;;;11.01;100.00
8075;BME280;4080;42.676;23.372;2022-11-21T05:14:48;93694.97;;;10.94;100.00
8075;BME280;4080;42.676;23.372;2022-11-21T05:17:16;93715.47;;;10.97;100.00
8075;BME280;4080;42.676;23.372;2022-11-21T05:19:43;93722.84;;;10.86;100.00
8075;BME280;4080;42.676;23.372;2022-11-21T05:22:16;93715.22;;;10.84;100.00
8075;BME280;4080;42.676;23.372;2022-11-21T05:24:42;93700.97;;;10.85;100.00
8075;BME280;4080;42.676;23.372;2022-11-21T05:27:09;93687.91;;;10.80;100.00
8075;BME280;4080;42.676;23.372;2022-11-21T05:29:36;93716.31;;;10.83;100.00
8075;BME280;4080;42.676;23.372;2022-11-21T05:32:03;93724.41;;;10.87;100.00
8075;BME280;4080;42.676;23.372;2022-11-21T05:34:31;93735.38;;;11.03;100.00
8075;BME280;4080;42.676;23.372;2022-11-21T05:36:57;93711.09;;;11.45;100.00
8075;BME280;4080;42.676;23.372;2022-11-21T05:39:25;93712.50;;;11.82;100.00
8075;BME280;4080;42.676;23.372;2022-11-21T05:41:52;93703.09;;;11.68;100.00
8075;BME280;4080;42.676;23.372;2022-11-21T05:44:19;93733.72;;;11.69;100.00
8075;BME280;4080;42.676;23.372;2022-11-21T05:46:44;93748.03;;;11.45;100.00
8075;BME280;4080;42.676;23.372;2022-11-21T05:49:11;93775.97;;;11.38;100.00
8075;BME280;4080;42.676;23.372;2022-11-21T05:51:39;93785.38;;;11.30;100.00
8075;BME280;4080;42.676;23.372;2022-11-21T05:54:06;93770.13;;;11.27;100.00
8075;BME280;4080;42.676;23.372;2022-11-21T05:56:33;93733.09;;;11.10;100.00
8075;BME280;4080;42.676;23.372;2022-11-21T05:59:00;93767.75;;;10.95;100.00
8075;BME280;4080;42.676;23.372;2022-11-21T06:01:27;93783.34;;;11.05;100.00
8075;BME280;4080;42.676;23.372;2022-11-21T06:04:11;93779.31;;;11.30;100.00
8075;BME280;4080;42.676;23.372;2022-11-21T06:06:37;93788.09;;;11.70;100.00
8075;BME280;4080;42.676;23.372;2022-11-21T06:09:07;93790.94;;;12.13;100.00
8075;BME280;4080;42.676;23.372;2022-11-21T06:11:33;93794.06;;;12.24;100.00
8075;BME280;4080;42.676;23.372;2022-11-21T06:14:00;93786.94;;;12.33;100.00
8075;BME280;4080;42.676;23.372;2022-11-21T06:19:49;93816.81;;;12.33;100.00
8075;BME280;4080;42.676;23.372;2022-11-21T06:22:15;93821.03;;;11.95;100.00
8075;BME280;4080;42.676;23.372;2022-11-21T06:24:44;93818.91;;;11.52;100.00
8075;BME280;4080;42.676;23.372;2022-11-21T06:27:10;93864.44;;;11.13;100.00
8075;BME280;4080;42.676;23.372;2022-11-21T06:29:37;93861.78;;;10.77;100.00
8075;BME280;4080;42.676;23.372;2022-11-21T06:32:04;93855.19;;;10.52;100.00
8075;BME280;4080;42.676;23.372;2022-11-21T06:34:30;93837.69;;;10.15;100.00
8075;BME280;4080;42.676;23.372;2022-11-21T06:36:57;93835.34;;;9.86;100.00
8075;BME280;4080;42.676;23.372;2022-11-21T06:39:25;93858.97;;;9.58;100.00
8075;BME280;4080;42.676;23.372;2022-11-21T06:41:53;93867.09;;;9.43;100.00
8075;BME280;4080;42.676;23.372;2022-11-21T06:44:19;93850.81;;;9.09;100.00
8075;BME280;4080;42.676;23.372;2022-11-21T06:46:46;93871.34;;;9.07;100.00
8075;BME280;4080;42.676;23.372;2022-11-21T06:49:13;93850.66;;;8.81;100.00
8075;BME280;4080;42.676;23.372;2022-11-21T06:51:39;93862.31;;;8.75;100.00
8075;BME280;4080;42.676;23.372;2022-11-21T06:54:06;93876.41;;;8.65;100.00
8075;BME280;4080;42.676;23.372;2022-11-21T06:56:33;93901.84;;;8.46;100.00
8075;BME280;4080;42.676;23.372;2022-11-21T06:59:01;93906.16;;;8.37;100.00
8075;BME280;4080;42.676;23.372;2022-11-21T07:01:28;93912.03;;;8.24;100.00
8075;BME280;4080;42.676;23.372;2022-11-21T07:03:55;93914.56;;;8.10;100.00
8075;BME280;4080;42.676;23.372;2022-11-21T07:06:22;93806.47;;;7.21;100.00
8075;BME280;4080;42.676;23.372;2022-11-21T07:08:51;93931.00;;;7.92;100.00
8075;BME280;4080;42.676;23.372;2022-11-21T07:11:18;93950.25;;;7.82;100.00
8075;BME280;4080;42.676;23.372;2022-11-21T07:13:45;93943.53;;;7.71;100.00
8075;BME280;4080;42.676;23.372;2022-11-21T07:19:53;93939.72;;;7.53;100.00
8075;BME280;4080;42.676;23.372;2022-11-21T07:22:20;93891.28;;;7.06;100.00
8075;BME280;4080;42.676;23.372;2022-11-21T07:24:46;93958.22;;;7.33;100.00
8075;BME280;4080;42.676;23.372;2022-11-21T07:27:13;93962.69;;;7.32;100.00
8075;BME280;4080;42.676;23.372;2022-11-21T07:29:40;93983.97;;;7.26;100.00
8075;BME280;4080;42.676;23.372;2022-11-21T07:32:06;94001.06;;;7.18;100.00
8075;BME280;4080;42.676;23.372;2022-11-21T07:34:33;94006.34;;;7.13;100.00
8075;BME280;4080;42.676;23.372;2022-11-21T07:37:02;94010.06;;;7.02;100.00
8075;BME280;4080;42.676;23.372;2022-11-21T07:39:28;94004.31;;;6.95;100.00
8075;BME280;4080;42.676;23.372;2022-11-21T07:41:55;94018.25;;;6.90;100.00
8075;BME280;4080;42.676;23.372;2022-11-21T07:44:22;94046.81;;;6.92;100.00
8075;BME280;4080;42.676;23.372;2022-11-21T07:46:52;94036.63;;;6.85;100.00
8075;BME280;4080;42.676;23.372;2022-11-21T07:49:19;94050.25;;;6.87;100.00
8075;BME280;4080;42.676;23.372;2022-11-21T07:51:45;94045.53;;;6.84;100.00
8075;BME280;4080;42.676;23.372;2022-11-21T07:54:13;94057.59;;;6.85;100.00
8075;BME280;4080;42.676;23.372;2022-11-21T07:56:40;94056.81;;;6.84;100.00
8075;BME280;4080;42.676;23.372;2022-11-21T07:59:07;94069.34;;;6.93;100.00
8075;BME280;4080;42.676;23.372;2022-11-21T08:01:33;94065.69;;;6.89;100.00
8075;BME280;4080;42.676;23.372;2022-11-21T08:04:00;94098.47;;;6.91;100.00
8075;BME280;4080;42.676;23.372;2022-11-21T08:06:27;94085.13;;;6.77;100.00
8075;BME280;4080;42.676;23.372;2022-11-21T08:08:53;94063.94;;;6.64;100.00
8075;BME280;4080;42.676;23.372;2022-11-21T08:11:22;94090.63;;;6.81;100.00
8075;BME280;4080;42.676;23.372;2022-11-21T08:13:48;94105.31;;;6.82;100.00
8075;BME280;4080;42.676;23.372;2022-11-21T08:16:15;94097.19;;;6.73;100.00
8075;BME280;4080;42.676;23.372;2022-11-21T08:18:42;94113.69;;;6.79;100.00
8075;BME280;4080;42.676;23.372;2022-11-21T08:21:08;94115.78;;;6.72;100.00
8075;BME280;4080;42.676;23.372;2022-11-21T08:23:35;94123.94;;;6.65;100.00
8075;BME280;4080;42.676;23.372;2022-11-21T08:26:02;94124.19;;;6.64;100.00
8075;BME280;4080;42.676;23.372;2022-11-21T08:28:30;94120.78;;;6.63;100.00
8075;BME280;4080;42.676;23.372;2022-11-21T08:30:57;94125.50;;;6.61;100.00
8075;BME280;4080;42.676;23.372;2022-11-21T08:33:23;94120.00;;;6.58;100.00
8075;BME280;4080;42.676;23.372;2022-11-21T08:35:50;94116.84;;;6.61;100.00
8075;BME280;4080;42.676;23.372;2022-11-21T08:38:17;94131.78;;;6.65;100.00
8075;BME280;4080;42.676;23.372;2022-11-21T08:40:43;94131.50;;;6.72;100.00
8075;BME280;4080;42.676;23.372;2022-11-21T08:43:10;94141.50;;;6.75;100.00
8075;BME280;4080;42.676;23.372;2022-11-21T08:45:38;94135.44;;;6.79;100.00
8075;BME280;4080;42.676;23.372;2022-11-21T08:48:08;94089.06;;;6.65;100.00
8075;BME280;4080;42.676;23.372;2022-11-21T08:50:35;94127.28;;;6.96;100.00
8075;BME280;4080;42.676;23.372;2022-11-21T08:53:02;94131.19;;;7.04;100.00
8075;BME280;4080;42.676;23.372;2022-11-21T08:55:29;94125.16;;;7.13;100.00
8075;BME280;4080;42.676;23.372;2022-11-21T08:57:56;94134.59;;;7.14;100.00
8075;BME280;4080;42.676;23.372;2022-11-21T09:00:23;94138.25;;;7.19;100.00
8075;BME280;4080;42.676;23.372;2022-11-21T09:02:51;94132.97;;;7.24;100.00
8075;BME280;4080;42.676;23.372;2022-11-21T09:05:18;94137.69;;;7.27;100.00
8075;BME280;4080;42.676;23.372;2022-11-21T09:07:45;94140.78;;;7.34;100.00
8075;BME280;4080;42.676;23.372;2022-11-21T09:10:13;94140.56;;;7.35;100.00
8075;BME280;4080;42.676;23.372;2022-11-21T09:12:39;94137.66;;;7.37;100.00
8075;BME280;4080;42.676;23.372;2022-11-21T09:15:08;94138.19;;;7.39;100.00
8075;BME280;4080;42.676;23.372;2022-11-21T09:17:54;94136.88;;;7.31;100.00
8075;BME280;4080;42.676;23.372;2022-11-21T09:20:33;94119.88;;;7.19;100.00
8075;BME280;4080;42.676;23.372;2022-11-21T09:23:03;94125.13;;;7.19;100.00
8075;BME280;4080;42.676;23.372;2022-11-21T09:25:30;94129.34;;;7.14;100.00
8075;BME280;4080;42.676;23.372;2022-11-21T09:27:58;94123.31;;;7.09;100.00
8075;BME280;4080;42.676;23.372;2022-11-21T09:30:25;94124.91;;;7.05;100.00
8075;BME280;4080;42.676;23.372;2022-11-21T09:32:53;94120.47;;;7.05;100.00
8075;BME280;4080;42.676;23.372;2022-11-21T09:35:20;94126.91;;;7.28;100.00
8075;BME280;4080;42.676;23.372;2022-11-21T09:37:46;94123.00;;;7.26;100.00
8075;BME280;4080;42.676;23.372;2022-11-21T09:40:15;94126.13;;;7.28;100.00
8075;BME280;4080;42.676;23.372;2022-11-21T09:42:54;94128.75;;;7.38;100.00
8075;BME280;4080;42.676;23.372;2022-11-21T09:45:25;94095.16;;;7.30;100.00
8075;BME280;4080;42.676;23.372;2022-11-21T09:47:56;94120.25;;;7.56;100.00
8075;BME280;4080;42.676;23.372;2022-11-21T09:50:27;94101.91;;;7.51;100.00
8075;BME280;4080;42.676;23.372;2022-11-21T09:52:59;94110.22;;;7.68;100.00
8075;BME280;4080;42.676;23.372;2022-11-21T09:55:41;94126.16;;;7.82;100.00
8075;BME280;4080;42.676;23.372;2022-11-21T09:58:18;94150.25;;;7.89;100.00
8075;BME280;4080;42.676;23.372;2022-11-21T10:00:49;94151.78;;;8.00;100.00
8075;BME280;4080;42.676;23.372;2022-11-21T10:03:20;94154.41;;;8.00;100.00
8075;BME280;4080;42.676;23.372;2022-11-21T10:05:49;94164.94;;;7.95;100.00
8075;BME280;4080;42.676;23.372;2022-11-21T10:08:26;94172.09;;;7.85;100.00
8075;BME280;4080;42.676;23.372;2022-11-21T10:10:57;94185.81;;;7.71;100.00
8075;BME280;4080;42.676;23.372;2022-11-21T10:13:40;94179.53;;;7.62;100.00
8075;BME280;4080;42.676;23.372;2022-11-21T10:16:14;94175.91;;;7.48;100.00
8075;BME280;4080;42.676;23.372;2022-11-21T10:22:25;94170.75;;;7.18;100.00
8075;BME280;4080;42.676;23.372;2022-11-21T10:25:02;94188.63;;;7.00;100.00
8075;BME280;4080;42.676;23.372;2022-11-21T10:27:42;94183.66;;;6.89;100.00
8075;BME280;4080;42.676;23.372;2022-11-21T10:30:15;94178.41;;;6.89;100.00
8075;BME280;4080;42.676;23.372;2022-11-21T10:32:45;94184.94;;;6.96;100.00
8075;BME280;4080;42.676;23.372;2022-11-21T10:35:16;94172.91;;;6.95;100.00
8075;BME280;4080;42.676;23.372;2022-11-21T10:37:48;94190.44;;;7.10;100.00
8075;BME280;4080;42.676;23.372;2022-11-21T10:40:25;94176.03;;;7.12;100.00
8075;BME280;4080;42.676;23.372;2022-11-21T10:42:59;94172.88;;;7.10;100.00
8075;BME280;4080;42.676;23.372;2022-11-21T10:45:47;94175.75;;;7.04;100.00
8075;BME280;4080;42.676;23.372;2022-11-21T10:48:13;94172.91;;;6.95;100.00
8075;BME280;4080;42.676;23.372;2022-11-21T10:50:51;94176.03;;;7.02;100.00
8075;BME280;4080;42.676;23.372;2022-11-21T10:53:24;94179.19;;;7.04;100.00
8075;BME280;4080;42.676;23.372;2022-11-21T10:56:11;94169.22;;;7.06;100.00
8075;BME280;4080;42.676;23.372;2022-11-21T10:58:43;94145.66;;;6.91;100.00
8075;BME280;4080;42.676;23.372;2022-11-21T11:01:22;94188.06;;;7.19;100.00
8075;BME280;4080;42.676;23.372;2022-11-21T11:04:10;94178.06;;;7.26;100.00
8075;BME280;4080;42.676;23.372;2022-11-21T11:06:44;94173.06;;;7.39;100.00
8075;BME280;4080;42.676;23.372;2022-11-21T11:09:22;94172.50;;;7.47;100.00
8075;BME280;4080;42.676;23.372;2022-11-21T11:11:49;94191.63;;;7.58;100.00
8075;BME280;4080;42.676;23.372;2022-11-21T11:14:27;94191.63;;;7.58;100.00
8075;BME280;4080;42.676;23.372;2022-11-21T11:16:55;94177.47;;;7.49;100.00
8075;BME280;4080;42.676;23.372;2022-11-21T11:19:25;94194.00;;;7.50;100.00
8075;BME280;4080;42.676;23.372;2022-11-21T11:21:53;94195.59;;;7.51;100.00
8075;BME280;4080;42.676;23.372;2022-11-21T11:24:23;94167.03;;;7.39;100.00
8075;BME280;4080;42.676;23.372;2022-11-21T11:26:58;94183.44;;;7.65;100.00
8075;BME280;4080;42.676;23.372;2022-11-21T11:29:26;94170.59;;;7.68;100.00
8075;BME280;4080;42.676;23.372;2022-11-21T11:31:56;94180.50;;;7.82;100.00
8075;BME280;4080;42.676;23.372;2022-11-21T11:34:27;94179.94;;;7.90;100.00
8075;BME280;4080;42.676;23.372;2022-11-21T11:37:11;94169.47;;;7.85;100.00
8075;BME280;4080;42.676;23.372;2022-11-21T11:39:40;94155.31;;;7.81;100.00
8075;BME280;4080;42.676;23.372;2022-11-21T11:42:45;94170.13;;;8.05;100.00
8075;BME280;4080;42.676;23.372;2022-11-21T11:45:49;94167.38;;;8.26;100.00
8075;BME280;4080;42.676;23.372;2022-11-21T11:48:36;94183.22;;;8.55;100.00
8075;BME280;4080;42.676;23.372;2022-11-21T11:51:19;94183.03;;;8.80;100.00
8075;BME280;4080;42.676;23.372;2022-11-21T11:53:51;94190.75;;;9.00;100.00
8075;BME280;4080;42.676;23.372;2022-11-21T11:56:21;94179.84;;;9.12;100.00
8075;BME280;4080;42.676;23.372;2022-11-21T11:58:54;94180.47;;;9.04;100.00
8075;BME280;4080;42.676;23.372;2022-11-21T12:01:30;94182.34;;;8.98;100.00
8075;BME280;4080;42.676;23.372;2022-11-21T12:04:01;94191.03;;;8.99;100.00
8075;BME280;4080;42.676;23.372;2022-11-21T12:06:33;94195.44;;;9.03;100.00
8075;BME280;4080;42.676;23.372;2022-11-21T12:09:10;94194.16;;;9.01;100.00
8075;BME280;4080;42.676;23.372;2022-11-21T12:11:49;94195.44;;;9.03;100.00
8075;BME280;4080;42.676;23.372;2022-11-21T12:14:44;94191.75;;;9.05;100.00
8075;BME280;4080;42.676;23.372;2022-11-21T12:17:35;94199.03;;;9.13;100.00
8075;BME280;4080;42.676;23.372;2022-11-21T12:20:13;94197.03;;;9.05;100.00
8075;BME280;4080;42.676;23.372;2022-11-21T12:22:41;94197.34;;;8.98;100.00
8075;BME280;4080;42.676;23.372;2022-11-21T12:25:12;94204.84;;;8.81;100.00
8075;BME280;4080;42.676;23.372;2022-11-21T12:27:40;94203.19;;;8.61;100.00
8075;BME280;4080;42.676;23.372;2022-11-21T12:30:36;94194.78;;;8.59;100.00
8075;BME280;4080;42.676;23.372;2022-11-21T12:33:11;94211.16;;;8.46;100.00
8075;BME280;4080;42.676;23.372;2022-11-21T12:35:56;94214.34;;;8.43;100.00
8075;BME280;4080;42.676;23.372;2022-11-21T12:38:47;94214.56;;;8.46;100.00
8075;BME280;4080;42.676;23.372;2022-11-21T12:41:26;94181.81;;;8.28;100.00
8075;BME280;4080;42.676;23.372;2022-11-21T12:44:20;94217.44;;;8.50;100.00
8075;BME280;4080;42.676;23.372;2022-11-21T12:47:04;94204.66;;;8.33;100.00
8075;BME280;4080;42.676;23.372;2022-11-21T12:49:45;94224.66;;;8.24;100.00
8075;BME280;4080;42.676;23.372;2022-11-21T12:52:39;94199.31;;;8.04;100.00
8075;BME280;4080;42.676;23.372;2022-11-21T12:55:30;94217.72;;;7.99;100.00
8075;BME280;4080;42.676;23.372;2022-11-21T12:58:05;94201.19;;;7.88;100.00
8075;BME280;4080;42.676;23.372;2022-11-21T13:00:41;94214.56;;;7.92;100.00
8075;BME280;4080;42.676;23.372;2022-11-21T13:03:43;94225.59;;;7.94;100.00
8075;BME280;4080;42.676;23.372;2022-11-21T13:07:18;94186.06;;;7.65;100.00
8075;BME280;4080;42.676;23.372;2022-11-21T13:11:09;94212.50;;;7.89;100.00
8075;BME280;4080;42.676;23.372;2022-11-21T13:18:19;94224.13;;;7.62;100.00
8075;BME280;4080;42.676;23.372;2022-11-21T13:20:50;94229.13;;;7.59;100.00
8075;BME280;4080;42.676;23.372;2022-11-21T13:23:36;94218.44;;;7.40;100.00
8075;BME280;4080;42.676;23.372;2022-11-21T13:29:06;94220.03;;;7.36;100.00
8075;BME280;4080;42.676;23.372;2022-11-21T13:31:34;94244.66;;;7.45;100.00
8075;BME280;4080;42.676;23.372;2022-11-21T13:34:03;94228.41;;;7.43;100.00
8075;BME280;4080;42.676;23.372;2022-11-21T13:36:36;94228.59;;;7.67;100.00
8075;BME280;4080;42.676;23.372;2022-11-21T13:39:31;94237.78;;;7.59;100.00
8075;BME280;4080;42.676;23.372;2022-11-21T13:42:07;94225.22;;;7.51;100.00
8075;BME280;4080;42.676;23.372;2022-11-21T13:44:51;94234.38;;;7.59;100.00